createdAt,value
2022-10-01T00:04:09.513Z,5.1
2022-10-01T00:09:09.511Z,5.1
2022-10-01T00:14:09.484Z,5.2
2022-10-01T00:19:10.991Z,5.1
2022-10-01T00:24:09.941Z,5.1
2022-10-01T00:29:09.828Z,5.2
2022-10-01T00:34:09.647Z,5.3
2022-10-01T00:39:09.502Z,5.3
2022-10-01T00:44:09.515Z,5.3
2022-10-01T00:49:09.501Z,5.1
2022-10-01T00:54:09.438Z,5.1
2022-10-01T00:59:09.452Z,5.2
2022-10-01T01:04:09.557Z,5.3
2022-10-01T01:09:09.621Z,5.4
2022-10-01T01:14:09.627Z,5.4
2022-10-01T01:19:09.505Z,5.5
2022-10-01T01:24:09.472Z,5.4
2022-10-01T01:29:09.457Z,5.5
2022-10-01T01:34:09.515Z,5.4
2022-10-01T01:39:09.530Z,5.4
2022-10-01T01:44:09.500Z,5.4
2022-10-01T01:49:09.510Z,5.4
2022-10-01T01:54:09.530Z,5.4
2022-10-01T01:59:09.460Z,5.3
2022-10-01T02:04:09.464Z,5.4
2022-10-01T02:09:09.544Z,5.4
2022-10-01T02:14:09.450Z,5.6
2022-10-01T02:19:09.514Z,5.6
2022-10-01T02:24:09.562Z,5.8
2022-10-01T02:29:09.624Z,5.9
2022-10-01T02:34:12.310Z,6.1
2022-10-01T02:39:09.461Z,6.1
2022-10-01T02:44:09.460Z,6.1
2022-10-01T02:49:09.599Z,6.1
2022-10-01T02:54:09.510Z,6.1
2022-10-01T02:59:09.560Z,6.1
2022-10-01T03:04:09.550Z,6.1
2022-10-01T03:09:09.507Z,6.1
2022-10-01T03:14:09.539Z,6.1
2022-10-01T03:19:09.532Z,6.3
2022-10-01T03:24:09.466Z,6.3
2022-10-01T03:29:09.543Z,6.3
2022-10-01T03:34:09.532Z,6.2
2022-10-01T03:39:09.507Z,6.2
2022-10-01T03:44:09.551Z,6.1
2022-10-01T03:49:09.526Z,6.1
2022-10-01T03:54:09.551Z,6.1
2022-10-01T03:59:09.555Z,6.2
2022-10-01T04:04:09.475Z,6.1
2022-10-01T04:09:09.505Z,6.1
2022-10-01T04:14:09.515Z,6.2
2022-10-01T04:19:09.543Z,6.3
2022-10-01T04:24:09.547Z,6.2
2022-10-01T04:29:09.530Z,6.3
2022-10-01T04:34:09.530Z,6.3
2022-10-01T04:39:09.539Z,6.3
2022-10-01T04:44:09.512Z,6.4
2022-10-01T04:49:09.594Z,6.3
2022-10-01T04:54:09.590Z,6.3
2022-10-01T04:59:09.516Z,6.3
2022-10-01T05:04:09.526Z,6.3
2022-10-01T05:09:09.647Z,6.3
2022-10-01T05:14:09.733Z,6.3
2022-10-01T05:19:09.747Z,6.3
2022-10-01T05:24:09.830Z,6.3
2022-10-01T05:29:09.743Z,6.3
2022-10-01T05:34:09.738Z,6.4
2022-10-01T05:39:09.941Z,6.4
2022-10-01T05:44:09.624Z,6.6
2022-10-01T05:49:09.664Z,6.6
2022-10-01T05:54:09.617Z,6.6
2022-10-01T05:59:09.637Z,6.6
2022-10-01T06:04:09.591Z,6.8
2022-10-01T06:09:09.909Z,6.9
2022-10-01T06:14:09.757Z,7.1
2022-10-01T06:19:09.586Z,7.1
2022-10-01T06:24:09.469Z,7.3
2022-10-01T06:29:09.467Z,7.3
2022-10-01T06:34:09.572Z,7.3
2022-10-01T06:39:09.473Z,7.3
2022-10-01T06:44:09.902Z,7.4
2022-10-01T06:49:09.609Z,7.6
2022-10-01T06:54:09.869Z,7.8
2022-10-01T06:59:09.540Z,7.9
2022-10-01T07:04:09.819Z,7.9
2022-10-01T07:09:09.718Z,7.9
2022-10-01T07:14:09.494Z,8.1
2022-10-01T07:19:09.515Z,8.1
2022-10-01T07:24:09.642Z,8.3
2022-10-01T07:29:09.462Z,8.3
2022-10-01T07:34:09.616Z,8.4
2022-10-01T07:39:09.519Z,8.4
2022-10-01T07:44:09.487Z,8.6
2022-10-01T07:49:09.691Z,8.6
2022-10-01T07:54:09.558Z,8.7
2022-10-01T07:59:09.933Z,8.8
2022-10-01T08:04:09.548Z,8.8
2022-10-01T08:09:09.949Z,8.9
2022-10-01T08:14:09.518Z,8.9
2022-10-01T08:19:09.485Z,8.9
2022-10-01T08:24:09.502Z,8.8
2022-10-01T08:29:11.620Z,8.8
2022-10-01T08:34:09.517Z,8.6
2022-10-01T08:39:10.507Z,8.5
2022-10-01T08:44:10.620Z,8.4
2022-10-01T08:49:10.531Z,8.4
2022-10-01T08:54:10.506Z,8.4
2022-10-01T08:59:10.597Z,8.4
2022-10-01T09:04:10.704Z,8.4
2022-10-01T09:09:12.331Z,8.5
2022-10-01T09:14:10.604Z,8.5
2022-10-01T09:19:10.584Z,8.5
2022-10-01T09:24:11.129Z,8.5
2022-10-01T09:29:13.064Z,8.6
2022-10-01T09:34:13.084Z,8.6
2022-10-01T09:39:13.023Z,8.7
2022-10-01T09:44:18.001Z,8.8
2022-10-01T09:49:14.219Z,8.8
2022-10-01T09:54:14.104Z,8.8
2022-10-01T09:59:15.030Z,8.8
2022-10-01T10:04:19.314Z,8.8
2022-10-01T10:09:15.161Z,8.8
2022-10-01T10:14:15.103Z,8.8
2022-10-01T10:19:15.012Z,8.8
2022-10-01T10:24:15.071Z,8.8
2022-10-01T10:29:15.089Z,8.9
2022-10-01T10:34:15.135Z,8.9
2022-10-01T10:39:15.026Z,8.9
2022-10-01T10:44:15.175Z,9.1
2022-10-01T10:49:15.048Z,9.2
2022-10-01T10:54:15.190Z,9.3
2022-10-01T10:59:15.035Z,9.4
2022-10-01T11:04:14.974Z,9.4
2022-10-01T11:09:15.252Z,9.4
2022-10-01T11:14:14.982Z,9.4
2022-10-01T11:19:15.133Z,9.4
2022-10-01T11:24:15.057Z,9.5
2022-10-01T11:29:16.077Z,9.5
2022-10-01T11:34:16.069Z,9.4
2022-10-01T11:39:16.078Z,9.5
2022-10-01T11:44:15.994Z,9.5
2022-10-01T11:49:17.060Z,9.6
2022-10-01T11:54:17.012Z,9.6
2022-10-01T11:59:17.042Z,9.9
2022-10-01T12:04:17.045Z,10.1
2022-10-01T12:09:17.117Z,10.3
2022-10-01T12:14:17.081Z,10.4
2022-10-01T12:19:17.277Z,10.4
2022-10-01T12:24:16.996Z,10.4
2022-10-01T12:29:17.301Z,10.4
2022-10-01T12:34:17.013Z,10.5
2022-10-01T12:39:17.242Z,10.7
2022-10-01T12:44:17.027Z,10.7
2022-10-01T12:49:17.090Z,10.8
2022-10-01T12:54:17.019Z,10.8
2022-10-01T12:59:17.096Z,10.8
2022-10-01T13:04:17.013Z,10.8
2022-10-01T13:09:17.075Z,10.8
2022-10-01T13:14:17.028Z,10.9
2022-10-01T13:19:17.070Z,10.9
2022-10-01T13:24:17.264Z,10.9
2022-10-01T13:29:16.991Z,10.9
2022-10-01T13:34:18.082Z,11
2022-10-01T13:39:18.030Z,11
2022-10-01T13:44:18.345Z,11
2022-10-01T13:49:18.089Z,11.2
2022-10-01T13:54:18.871Z,11.3
2022-10-01T13:59:18.020Z,11.4
2022-10-01T14:04:18.114Z,11.4
2022-10-01T14:09:18.111Z,11.4
2022-10-01T14:14:18.058Z,11.4
2022-10-01T14:19:18.053Z,11.5
2022-10-01T14:24:18.079Z,11.6
2022-10-01T14:29:18.127Z,11.5
2022-10-01T14:34:18.306Z,11.6
2022-10-01T14:39:18.176Z,11.6
2022-10-01T14:44:19.061Z,11.6
2022-10-01T14:49:19.112Z,11.6
2022-10-01T14:54:19.173Z,11.6
2022-10-01T14:59:21.125Z,11.8
2022-10-01T15:04:21.237Z,11.8
2022-10-01T15:09:21.096Z,11.8
2022-10-01T15:14:22.175Z,11.8
2022-10-01T15:19:22.150Z,11.9
2022-10-01T15:24:23.314Z,11.8
2022-10-01T15:29:23.921Z,11.9
2022-10-01T15:34:23.117Z,11.9
2022-10-01T15:39:24.169Z,12
2022-10-01T15:44:24.233Z,12.1
2022-10-01T15:49:24.267Z,12.1
2022-10-01T15:54:26.486Z,12.1
2022-10-01T15:59:26.385Z,12.1
2022-10-01T16:04:26.388Z,12.1
2022-10-01T16:09:26.577Z,12.1
2022-10-01T16:14:26.467Z,12.2
2022-10-01T16:19:26.637Z,12.2
2022-10-01T16:24:26.528Z,12.2
2022-10-01T16:29:26.622Z,12.2
2022-10-01T16:34:26.493Z,12.2
2022-10-01T16:39:26.489Z,12.3
2022-10-01T16:44:26.480Z,12.3
2022-10-01T16:49:26.474Z,12.3
2022-10-01T16:54:26.517Z,12.2
2022-10-01T16:59:26.485Z,12.3
2022-10-01T17:04:29.328Z,12.2
2022-10-01T17:09:26.539Z,12.4
2022-10-01T17:14:26.439Z,12.3
2022-10-01T17:19:26.514Z,12.4
2022-10-01T17:24:26.460Z,12.3
2022-10-01T17:29:26.471Z,12.3
2022-10-01T17:34:26.421Z,12.3
2022-10-01T17:39:26.570Z,12.3
2022-10-01T17:44:26.453Z,12.3
2022-10-01T17:49:26.593Z,12.3
2022-10-01T17:54:26.410Z,12.3
2022-10-01T17:59:26.489Z,12.2
2022-10-01T18:04:26.507Z,12.1
2022-10-01T18:09:26.523Z,12.2
2022-10-01T18:14:26.505Z,12.1
2022-10-01T18:24:26.476Z,11.8
2022-10-01T18:29:26.430Z,11.6
2022-10-01T18:34:26.529Z,11.5
2022-10-01T18:39:26.518Z,11.4
2022-10-01T18:44:26.444Z,11.4
2022-10-01T18:49:26.593Z,11.4
2022-10-01T18:54:26.475Z,11.4
2022-10-01T18:59:26.474Z,11.4
2022-10-01T19:04:26.424Z,11.4
2022-10-01T19:09:26.483Z,11.6
2022-10-01T19:14:26.499Z,11.6
2022-10-01T19:19:26.447Z,11.6
2022-10-01T19:24:26.485Z,11.5
2022-10-01T19:29:26.531Z,11.5
2022-10-01T19:34:26.653Z,11.5
2022-10-01T19:39:26.493Z,11.5
2022-10-01T19:44:26.480Z,11.5
2022-10-01T19:49:26.428Z,11.5
2022-10-01T19:54:26.412Z,11.5
2022-10-01T19:59:26.507Z,11.6
2022-10-01T20:04:26.466Z,11.6
2022-10-01T20:09:26.508Z,11.6
2022-10-01T20:14:26.486Z,11.6
2022-10-01T20:19:26.502Z,11.6
2022-10-01T20:24:26.508Z,11.6
2022-10-01T20:29:26.500Z,11.6
2022-10-01T20:34:26.474Z,11.6
2022-10-01T20:39:26.480Z,11.6
2022-10-01T20:44:26.494Z,11.6
2022-10-01T20:49:26.511Z,11.6
2022-10-01T20:54:26.473Z,11.6
2022-10-01T20:59:26.444Z,11.6
2022-10-01T21:04:26.491Z,11.6
2022-10-01T21:10:06.854Z,11.6
2022-10-01T21:15:32.617Z,11.6
2022-10-01T21:24:26.478Z,11.5
2022-10-01T21:29:26.532Z,11.6
2022-10-01T21:34:26.461Z,11.5
2022-10-01T21:39:26.498Z,11.4
2022-10-01T21:44:26.482Z,11.4
2022-10-01T21:49:26.596Z,11.4
2022-10-01T21:54:26.618Z,11.4
2022-10-01T21:59:26.470Z,11.2
2022-10-01T22:04:46.258Z,11.1
2022-10-01T22:09:26.892Z,10.9
2022-10-01T22:14:26.797Z,10.8
2022-10-01T22:19:26.673Z,10.8
2022-10-01T22:24:26.706Z,10.8
2022-10-01T22:29:26.736Z,10.6
2022-10-01T22:34:26.682Z,10.7
2022-10-01T22:39:26.811Z,10.8
2022-10-01T22:44:26.663Z,10.6
2022-10-01T22:49:26.615Z,10.6
2022-10-01T22:54:26.658Z,10.6
2022-10-01T22:59:26.675Z,10.8
2022-10-01T23:04:26.740Z,10.8
2022-10-01T23:09:26.772Z,10.8
2022-10-01T23:14:26.525Z,10.9
2022-10-01T23:19:26.667Z,11
2022-10-01T23:24:26.618Z,10.9
2022-10-01T23:29:26.524Z,10.9
2022-10-01T23:34:26.582Z,10.9
2022-10-01T23:39:26.506Z,11
2022-10-01T23:44:26.512Z,10.9
2022-10-01T23:49:26.494Z,10.9
2022-10-01T23:54:26.477Z,11
2022-10-01T23:59:26.612Z,10.9
